KJLN

Joplin Regional Airport

Joplin, Missouri, USA
METAR KJLN 170253Z AUTO 19004KT 10SM CLR 07/03 A3030 RMK AO2 SLP264 T00670033 51014
Observed Flight Rules
Oct-17 @ 02:53 UTC (56 minutes ago) Visual Flight Rules
Wind Visibility Clouds
190° at 4 knots 10 miles
  • Clear skies
Temperatures Readings
Current 7°C / 45°F
Dewpoint 3°C / 37°F
Humidity 76%
Altimeter 30.3" Hg
Pressure 1026.4 hPa
Elevation 299
METAR KJLN 170253Z AUTO 19004KT 10SM CLR 07/03 A3030 RMK AO2 SLP264 T00670033 51014
Observed Flight Rules
Oct-17 @ 02:53 UTC
(56 minutes ago)
VFR
Wind Visibility
190° at 4 knots 10 miles
Clouds
  • Clear skies
Temperature Dewpoint
7°C / 45°F 3°C / 37°F
Humidity Altimeter Pressure
76% 30.3" Hg 1026.4 hPa